Amy C — MKWC7 — position and weather

sailwx.info

Track history (hours):
 
Tides and Currents Weather Stations Pressure Air Temp Water Temp Dewpoint Dewpoint Depression Visibility Wind Speed Wind Dir Waves Ship Positions

Amy C

Last reported at 2016-Sep-29 08:31 UTC. Time now 2016-Sep-29 11:52 UTC.
Position N 39°43' W 075°31'.

Length 136 m; draft 5.3 m.

Type: Ship. MMSI: 235010170.

Date/timePositionNaut miles runAvg speedWind from/ knotsBaromVisibWave heightAir tempDewpointWater temp
2016-Sep-29 08:31N 39°43' W 075°31'0 0.0
2016-Sep-29 07:31N 39°43' W 075°31'0 0.0
2016-Sep-29 00:31N 39°43' W 075°31'0 0.0
2016-Sep-28 21:31N 39°43' W 075°31'0 0.0
2016-Sep-28 19:33N 39°43' W 075°31'1 0.3
2016-Sep-28 16:32N 39°42' W 075°31'0 0.2
2016-Sep-28 15:32N 39°42' W 075°30'0 0.0
2016-Sep-28 12:32N 39°42' W 075°30'0 0.0
2016-Sep-28 08:30N 39°42' W 075°31'0 0.0
2016-Sep-28 03:32N 39°42' W 075°30'0 0.0
2016-Sep-28 02:32N 39°42' W 075°30'0 0.0
2016-Sep-28 01:32N 39°42' W 075°30'0 0.0
2016-Sep-27 23:33N 39°42' W 075°30'0 0.0
2016-Sep-27 19:32N 39°42' W 075°31'0 0.0
2016-Sep-27 14:32N 39°42' W 075°30'0 0.0
2016-Sep-27 13:32N 39°42' W 075°30'0 0.0
2016-Sep-27 10:32N 39°42' W 075°30'75 7.5
2016-Sep-27 00:33N 38°35' W 074°48'  
2016-Sep-24 01:04N 26°20' W 079°29'815.3
2016-Sep-24 00:33N 26°13' W 079°33'32 6.2
2016-Sep-23 19:27N 26°05' W 080°07'0 0.0
2016-Sep-23 17:24N 26°05' W 080°07'0 0.0
2016-Sep-23 16:27N 26°05' W 080°07'0 0.0
2016-Sep-23 15:30N 26°05' W 080°07'0 0.0
2016-Sep-23 13:33N 26°05' W 080°07'0 0.0
2016-Sep-23 09:33N 26°05' W 080°07'0 0.0
2016-Sep-23 06:24N 26°05' W 080°07'0 0.0
2016-Sep-23 04:27N 26°05' W 080°07'0 0.0
2016-Sep-23 03:27N 26°05' W 080°07'0 0.0
2016-Sep-23 02:30N 26°05' W 080°07'0 0.0
2016-Sep-23 01:30N 26°05' W 080°07'0 0.0
2016-Sep-23 00:30N 26°05' W 080°07'0 0.0
2016-Sep-22 23:33N 26°05' W 080°07'0 0.0
2016-Sep-22 20:33N 26°05' W 080°07'0 0.0
2016-Sep-22 12:30N 26°05' W 080°07'0 0.0
2016-Sep-22 04:33N 26°05' W 080°07'0 0.0
2016-Sep-22 03:33N 26°05' W 080°07'0 0.0
2016-Sep-22 00:27N 26°05' W 080°07'0 0.0
2016-Sep-21 23:27N 26°05' W 080°07'0 0.0
2016-Sep-21 22:27N 26°05' W 080°07'0 0.0
2016-Sep-21 19:30N 26°05' W 080°07'0 0.0
2016-Sep-21 16:33N 26°05' W 080°07'0 0.0
2016-Sep-21 09:27N 26°05' W 080°07'0 0.0
2016-Sep-21 08:27N 26°05' W 080°07'0 0.0
2016-Sep-21 05:30N 26°05' W 080°07'0 0.0
2016-Sep-21 03:33N 26°05' W 080°07'0 0.0
2016-Sep-21 02:33N 26°05' W 080°07'0 0.0
2016-Sep-20 17:27N 26°05' W 080°07'0 0.0
2016-Sep-20 14:33N 26°05' W 080°07'0 0.0
2016-Sep-20 13:33N 26°05' W 080°07'0 0.0
2016-Sep-20 10:33N 26°05' W 080°07'0 0.0
2016-Sep-20 08:33N 26°05' W 080°07'0 0.0
2016-Sep-20 07:33N 26°05' W 080°07'0 0.0
2016-Sep-20 06:24N 26°05' W 080°07'0 0.0
2016-Sep-20 02:30N 26°05' W 080°07'0 0.0
2016-Sep-19 23:33N 26°05' W 080°07'0 0.0
2016-Sep-19 19:33N 26°05' W 080°07'0 0.0
2016-Sep-19 18:33N 26°05' W 080°07'0 0.0
2016-Sep-19 16:24N 26°05' W 080°07'0 0.0
2016-Sep-19 14:27N 26°05' W 080°07'0 0.0
2016-Sep-19 13:24N 26°05' W 080°07'0 0.0
2016-Sep-19 12:30N 26°05' W 080°07'0 0.0
2016-Sep-19 11:30N 26°05' W 080°07'3 1.7
2016-Sep-19 09:33N 26°08' W 080°04'  
Track history (hours):
 
Tides and Currents Weather Stations Pressure Air Temp Water Temp Dewpoint Dewpoint Depression Visibility Wind Speed Wind Dir Waves Ship Positions

Amy C

Last reported at 2016-Sep-29 08:31 UTC. Time now 2016-Sep-29 11:52 UTC.
Position N 39°43' W 075°31'.

Length 136 m; draft 5.3 m.

Type: Ship. MMSI: 235010170.

Date/timePositionNaut miles runAvg speedWind from/ knotsBaromVisibWave heightAir tempDewpointWater temp
2016-Sep-29 08:31N 39°43' W 075°31'0 0.0
2016-Sep-29 07:31N 39°43' W 075°31'0 0.0
2016-Sep-29 00:31N 39°43' W 075°31'0 0.0
2016-Sep-28 21:31N 39°43' W 075°31'0 0.0
2016-Sep-28 19:33N 39°43' W 075°31'1 0.3
2016-Sep-28 16:32N 39°42' W 075°31'0 0.2
2016-Sep-28 15:32N 39°42' W 075°30'0 0.0
2016-Sep-28 12:32N 39°42' W 075°30'0 0.0
2016-Sep-28 08:30N 39°42' W 075°31'0 0.0
2016-Sep-28 03:32N 39°42' W 075°30'0 0.0
2016-Sep-28 02:32N 39°42' W 075°30'0 0.0
2016-Sep-28 01:32N 39°42' W 075°30'0 0.0
2016-Sep-27 23:33N 39°42' W 075°30'0 0.0
2016-Sep-27 19:32N 39°42' W 075°31'0 0.0
2016-Sep-27 14:32N 39°42' W 075°30'0 0.0
2016-Sep-27 13:32N 39°42' W 075°30'0 0.0
2016-Sep-27 10:32N 39°42' W 075°30'75 7.5
2016-Sep-27 00:33N 38°35' W 074°48'  
2016-Sep-24 01:04N 26°20' W 079°29'815.3
2016-Sep-24 00:33N 26°13' W 079°33'32 6.2
2016-Sep-23 19:27N 26°05' W 080°07'0 0.0
2016-Sep-23 17:24N 26°05' W 080°07'0 0.0
2016-Sep-23 16:27N 26°05' W 080°07'0 0.0
2016-Sep-23 15:30N 26°05' W 080°07'0 0.0
2016-Sep-23 13:33N 26°05' W 080°07'0 0.0
2016-Sep-23 09:33N 26°05' W 080°07'0 0.0
2016-Sep-23 06:24N 26°05' W 080°07'0 0.0
2016-Sep-23 04:27N 26°05' W 080°07'0 0.0
2016-Sep-23 03:27N 26°05' W 080°07'0 0.0
2016-Sep-23 02:30N 26°05' W 080°07'0 0.0
2016-Sep-23 01:30N 26°05' W 080°07'0 0.0
2016-Sep-23 00:30N 26°05' W 080°07'0 0.0
2016-Sep-22 23:33N 26°05' W 080°07'0 0.0
2016-Sep-22 20:33N 26°05' W 080°07'0 0.0
2016-Sep-22 12:30N 26°05' W 080°07'0 0.0
2016-Sep-22 04:33N 26°05' W 080°07'0 0.0
2016-Sep-22 03:33N 26°05' W 080°07'0 0.0
2016-Sep-22 00:27N 26°05' W 080°07'0 0.0
2016-Sep-21 23:27N 26°05' W 080°07'0 0.0
2016-Sep-21 22:27N 26°05' W 080°07'0 0.0
2016-Sep-21 19:30N 26°05' W 080°07'0 0.0
2016-Sep-21 16:33N 26°05' W 080°07'0 0.0
2016-Sep-21 09:27N 26°05' W 080°07'0 0.0
2016-Sep-21 08:27N 26°05' W 080°07'0 0.0
2016-Sep-21 05:30N 26°05' W 080°07'0 0.0
2016-Sep-21 03:33N 26°05' W 080°07'0 0.0
2016-Sep-21 02:33N 26°05' W 080°07'0 0.0
2016-Sep-20 17:27N 26°05' W 080°07'0 0.0
2016-Sep-20 14:33N 26°05' W 080°07'0 0.0
2016-Sep-20 13:33N 26°05' W 080°07'0 0.0
2016-Sep-20 10:33N 26°05' W 080°07'0 0.0
2016-Sep-20 08:33N 26°05' W 080°07'0 0.0
2016-Sep-20 07:33N 26°05' W 080°07'0 0.0
2016-Sep-20 06:24N 26°05' W 080°07'0 0.0
2016-Sep-20 02:30N 26°05' W 080°07'0 0.0
2016-Sep-19 23:33N 26°05' W 080°07'0 0.0
2016-Sep-19 19:33N 26°05' W 080°07'0 0.0
2016-Sep-19 18:33N 26°05' W 080°07'0 0.0
2016-Sep-19 16:24N 26°05' W 080°07'0 0.0
2016-Sep-19 14:27N 26°05' W 080°07'0 0.0
2016-Sep-19 13:24N 26°05' W 080°07'0 0.0
2016-Sep-19 12:30N 26°05' W 080°07'0 0.0
2016-Sep-19 11:30N 26°05' W 080°07'3 1.7
2016-Sep-19 09:33N 26°08' W 080°04'  

Dump ship's entire track history